sensor_id;sensor_type;location;lat;lon;timestamp;P1;durP1;ratioP1;P2;durP2;ratioP2
7289;SDS011;63176;52.678;13.250;2023-08-06T00:00:38;6.63;;;5.13;;
7289;SDS011;63176;52.678;13.250;2023-08-06T00:03:04;9.70;;;5.40;;
7289;SDS011;63176;52.678;13.250;2023-08-06T00:05:30;7.87;;;5.03;;
7289;SDS011;63176;52.678;13.250;2023-08-06T00:10:25;8.47;;;5.30;;
7289;SDS011;63176;52.678;13.250;2023-08-06T00:12:51;9.40;;;5.40;;
7289;SDS011;63176;52.678;13.250;2023-08-06T00:15:16;11.23;;;6.00;;
7289;SDS011;63176;52.678;13.250;2023-08-06T00:17:42;9.30;;;5.50;;
7289;SDS011;63176;52.678;13.250;2023-08-06T00:20:08;6.40;;;5.40;;
7289;SDS011;63176;52.678;13.250;2023-08-06T00:22:34;11.60;;;5.90;;
7289;SDS011;63176;52.678;13.250;2023-08-06T00:25:01;10.63;;;7.87;;
7289;SDS011;63176;52.678;13.250;2023-08-06T00:27:27;9.00;;;6.50;;
7289;SDS011;63176;52.678;13.250;2023-08-06T00:29:53;11.07;;;6.63;;
7289;SDS011;63176;52.678;13.250;2023-08-06T00:32:18;6.30;;;5.40;;
7289;SDS011;63176;52.678;13.250;2023-08-06T00:34:44;8.60;;;6.70;;
7289;SDS011;63176;52.678;13.250;2023-08-06T00:37:10;6.27;;;5.10;;
7289;SDS011;63176;52.678;13.250;2023-08-06T00:39:36;10.33;;;5.60;;
7289;SDS011;63176;52.678;13.250;2023-08-06T00:42:02;7.27;;;5.73;;
7289;SDS011;63176;52.678;13.250;2023-08-06T00:44:28;6.93;;;5.37;;
7289;SDS011;63176;52.678;13.250;2023-08-06T00:46:53;9.20;;;5.27;;
7289;SDS011;63176;52.678;13.250;2023-08-06T00:49:19;10.03;;;6.70;;
7289;SDS011;63176;52.678;13.250;2023-08-06T00:51:45;8.20;;;5.80;;
7289;SDS011;63176;52.678;13.250;2023-08-06T00:54:12;8.73;;;5.90;;
7289;SDS011;63176;52.678;13.250;2023-08-06T00:56:37;10.67;;;5.90;;
7289;SDS011;63176;52.678;13.250;2023-08-06T00:59:06;8.80;;;5.40;;
7289;SDS011;63176;52.678;13.250;2023-08-06T01:01:32;11.10;;;5.63;;
7289;SDS011;63176;52.678;13.250;2023-08-06T01:03:58;11.93;;;5.30;;
7289;SDS011;63176;52.678;13.250;2023-08-06T01:06:30;6.13;;;5.33;;
7289;SDS011;63176;52.678;13.250;2023-08-06T01:09:09;8.37;;;5.57;;
7289;SDS011;63176;52.678;13.250;2023-08-06T01:17:15;7.80;;;5.00;;
7289;SDS011;63176;52.678;13.250;2023-08-06T01:19:41;6.37;;;5.77;;
7289;SDS011;63176;52.678;13.250;2023-08-06T01:22:07;5.93;;;5.43;;
7289;SDS011;63176;52.678;13.250;2023-08-06T01:24:32;7.80;;;5.90;;
7289;SDS011;63176;52.678;13.250;2023-08-06T01:27:01;7.17;;;5.53;;
7289;SDS011;63176;52.678;13.250;2023-08-06T01:29:32;10.17;;;6.63;;
7289;SDS011;63176;52.678;13.250;2023-08-06T01:32:01;9.70;;;7.20;;
7289;SDS011;63176;52.678;13.250;2023-08-06T01:34:28;6.30;;;5.70;;
7289;SDS011;63176;52.678;13.250;2023-08-06T01:36:57;6.53;;;5.90;;
7289;SDS011;63176;52.678;13.250;2023-08-06T01:39:25;8.13;;;6.90;;
7289;SDS011;63176;52.678;13.250;2023-08-06T01:41:51;8.67;;;7.33;;
7289;SDS011;63176;52.678;13.250;2023-08-06T01:44:18;8.67;;;6.83;;
7289;SDS011;63176;52.678;13.250;2023-08-06T01:46:43;10.53;;;7.33;;
7289;SDS011;63176;52.678;13.250;2023-08-06T01:49:09;10.93;;;8.10;;
7289;SDS011;63176;52.678;13.250;2023-08-06T01:51:35;13.00;;;7.77;;
7289;SDS011;63176;52.678;13.250;2023-08-06T01:54:00;11.13;;;7.17;;
7289;SDS011;63176;52.678;13.250;2023-08-06T01:56:26;9.37;;;7.13;;
7289;SDS011;63176;52.678;13.250;2023-08-06T01:58:51;7.73;;;6.93;;
7289;SDS011;63176;52.678;13.250;2023-08-06T02:01:17;16.60;;;7.63;;
7289;SDS011;63176;52.678;13.250;2023-08-06T02:03:43;11.10;;;7.90;;
7289;SDS011;63176;52.678;13.250;2023-08-06T02:06:08;12.43;;;7.40;;
7289;SDS011;63176;52.678;13.250;2023-08-06T02:08:34;9.00;;;7.50;;
7289;SDS011;63176;52.678;13.250;2023-08-06T02:10:59;9.93;;;7.50;;
7289;SDS011;63176;52.678;13.250;2023-08-06T02:13:25;9.70;;;7.90;;
7289;SDS011;63176;52.678;13.250;2023-08-06T02:15:51;9.23;;;7.00;;
7289;SDS011;63176;52.678;13.250;2023-08-06T02:18:17;8.40;;;6.73;;
7289;SDS011;63176;52.678;13.250;2023-08-06T02:20:42;9.03;;;6.80;;
7289;SDS011;63176;52.678;13.250;2023-08-06T02:23:08;8.33;;;6.17;;
7289;SDS011;63176;52.678;13.250;2023-08-06T02:25:34;8.40;;;7.07;;
7289;SDS011;63176;52.678;13.250;2023-08-06T02:28:00;8.80;;;7.10;;
7289;SDS011;63176;52.678;13.250;2023-08-06T02:30:26;8.10;;;7.30;;
7289;SDS011;63176;52.678;13.250;2023-08-06T02:32:52;11.30;;;7.30;;
7289;SDS011;63176;52.678;13.250;2023-08-06T02:35:17;8.47;;;7.67;;
7289;SDS011;63176;52.678;13.250;2023-08-06T02:37:43;9.50;;;7.93;;
7289;SDS011;63176;52.678;13.250;2023-08-06T02:40:08;8.50;;;7.57;;
7289;SDS011;63176;52.678;13.250;2023-08-06T02:42:34;8.73;;;7.20;;
7289;SDS011;63176;52.678;13.250;2023-08-06T02:45:00;8.07;;;6.93;;
7289;SDS011;63176;52.678;13.250;2023-08-06T02:47:25;8.63;;;6.90;;
7289;SDS011;63176;52.678;13.250;2023-08-06T02:49:51;7.90;;;7.10;;
7289;SDS011;63176;52.678;13.250;2023-08-06T02:52:17;8.80;;;7.87;;
7289;SDS011;63176;52.678;13.250;2023-08-06T02:54:43;9.90;;;7.50;;
7289;SDS011;63176;52.678;13.250;2023-08-06T02:57:08;9.37;;;7.60;;
7289;SDS011;63176;52.678;13.250;2023-08-06T02:59:34;8.63;;;7.47;;
7289;SDS011;63176;52.678;13.250;2023-08-06T03:02:00;12.27;;;7.53;;
7289;SDS011;63176;52.678;13.250;2023-08-06T03:04:25;12.30;;;7.93;;
7289;SDS011;63176;52.678;13.250;2023-08-06T03:06:59;11.10;;;8.13;;
7289;SDS011;63176;52.678;13.250;2023-08-06T03:09:25;9.07;;;7.40;;
7289;SDS011;63176;52.678;13.250;2023-08-06T03:11:50;9.90;;;7.80;;
7289;SDS011;63176;52.678;13.250;2023-08-06T03:14:16;9.13;;;7.80;;
7289;SDS011;63176;52.678;13.250;2023-08-06T03:16:41;9.67;;;7.60;;
7289;SDS011;63176;52.678;13.250;2023-08-06T03:19:07;9.10;;;7.80;;
7289;SDS011;63176;52.678;13.250;2023-08-06T03:21:32;9.80;;;8.80;;
7289;SDS011;63176;52.678;13.250;2023-08-06T03:23:58;12.50;;;8.50;;
7289;SDS011;63176;52.678;13.250;2023-08-06T03:26:24;8.77;;;7.33;;
7289;SDS011;63176;52.678;13.250;2023-08-06T03:28:49;16.33;;;7.80;;
7289;SDS011;63176;52.678;13.250;2023-08-06T03:31:15;9.70;;;7.57;;
7289;SDS011;63176;52.678;13.250;2023-08-06T03:33:40;10.60;;;7.67;;
7289;SDS011;63176;52.678;13.250;2023-08-06T03:36:06;10.00;;;8.23;;
7289;SDS011;63176;52.678;13.250;2023-08-06T03:38:32;12.20;;;9.43;;
7289;SDS011;63176;52.678;13.250;2023-08-06T03:40:57;8.53;;;7.73;;
7289;SDS011;63176;52.678;13.250;2023-08-06T03:43:23;10.30;;;8.57;;
7289;SDS011;63176;52.678;13.250;2023-08-06T03:45:48;11.20;;;8.83;;
7289;SDS011;63176;52.678;13.250;2023-08-06T03:48:14;10.80;;;9.23;;
7289;SDS011;63176;52.678;13.250;2023-08-06T03:50:40;11.50;;;9.20;;
7289;SDS011;63176;52.678;13.250;2023-08-06T03:53:06;11.17;;;9.17;;
7289;SDS011;63176;52.678;13.250;2023-08-06T03:55:31;13.37;;;8.70;;
7289;SDS011;63176;52.678;13.250;2023-08-06T03:57:57;12.13;;;9.53;;
7289;SDS011;63176;52.678;13.250;2023-08-06T04:00:23;11.93;;;9.07;;
7289;SDS011;63176;52.678;13.250;2023-08-06T04:02:48;12.00;;;9.80;;
7289;SDS011;63176;52.678;13.250;2023-08-06T04:05:14;11.50;;;9.03;;
7289;SDS011;63176;52.678;13.250;2023-08-06T04:07:40;10.50;;;9.13;;
7289;SDS011;63176;52.678;13.250;2023-08-06T04:10:05;11.50;;;9.07;;
7289;SDS011;63176;52.678;13.250;2023-08-06T04:12:31;12.13;;;9.13;;
7289;SDS011;63176;52.678;13.250;2023-08-06T04:15:01;16.17;;;10.37;;
7289;SDS011;63176;52.678;13.250;2023-08-06T04:17:28;10.10;;;9.00;;
7289;SDS011;63176;52.678;13.250;2023-08-06T04:19:54;11.27;;;9.90;;
7289;SDS011;63176;52.678;13.250;2023-08-06T04:22:23;10.83;;;9.23;;
7289;SDS011;63176;52.678;13.250;2023-08-06T04:24:49;12.93;;;9.10;;
7289;SDS011;63176;52.678;13.250;2023-08-06T04:27:14;13.67;;;10.03;;
7289;SDS011;63176;52.678;13.250;2023-08-06T04:29:41;10.10;;;9.07;;
7289;SDS011;63176;52.678;13.250;2023-08-06T04:32:07;10.10;;;9.10;;
7289;SDS011;63176;52.678;13.250;2023-08-06T04:34:34;12.40;;;9.33;;
7289;SDS011;63176;52.678;13.250;2023-08-06T04:37:01;9.67;;;8.67;;
7289;SDS011;63176;52.678;13.250;2023-08-06T04:39:27;11.10;;;9.83;;
7289;SDS011;63176;52.678;13.250;2023-08-06T04:41:53;11.13;;;9.37;;
7289;SDS011;63176;52.678;13.250;2023-08-06T04:44:18;10.33;;;9.33;;
7289;SDS011;63176;52.678;13.250;2023-08-06T04:46:45;12.77;;;9.60;;
7289;SDS011;63176;52.678;13.250;2023-08-06T04:49:11;10.60;;;9.50;;
7289;SDS011;63176;52.678;13.250;2023-08-06T04:51:36;11.23;;;10.07;;
7289;SDS011;63176;52.678;13.250;2023-08-06T04:54:02;9.80;;;8.80;;
7289;SDS011;63176;52.678;13.250;2023-08-06T04:56:27;10.27;;;9.17;;
7289;SDS011;63176;52.678;13.250;2023-08-06T04:59:00;10.37;;;9.00;;
7289;SDS011;63176;52.678;13.250;2023-08-06T05:01:25;15.37;;;8.50;;
7289;SDS011;63176;52.678;13.250;2023-08-06T05:03:51;13.60;;;9.70;;
7289;SDS011;63176;52.678;13.250;2023-08-06T05:06:17;10.73;;;9.03;;
7289;SDS011;63176;52.678;13.250;2023-08-06T05:08:42;10.47;;;9.30;;
7289;SDS011;63176;52.678;13.250;2023-08-06T05:11:09;13.80;;;8.87;;
7289;SDS011;63176;52.678;13.250;2023-08-06T05:13:34;10.87;;;9.30;;
7289;SDS011;63176;52.678;13.250;2023-08-06T05:16:00;10.70;;;8.70;;
7289;SDS011;63176;52.678;13.250;2023-08-06T05:18:26;11.67;;;9.50;;
7289;SDS011;63176;52.678;13.250;2023-08-06T05:20:51;10.23;;;9.13;;
7289;SDS011;63176;52.678;13.250;2023-08-06T05:23:17;9.57;;;8.57;;
7289;SDS011;63176;52.678;13.250;2023-08-06T05:25:42;10.70;;;9.60;;
7289;SDS011;63176;52.678;13.250;2023-08-06T05:28:08;10.13;;;9.00;;
7289;SDS011;63176;52.678;13.250;2023-08-06T05:30:34;11.20;;;9.73;;
7289;SDS011;63176;52.678;13.250;2023-08-06T05:33:04;10.70;;;9.30;;
7289;SDS011;63176;52.678;13.250;2023-08-06T05:35:30;10.37;;;9.13;;
7289;SDS011;63176;52.678;13.250;2023-08-06T05:37:55;10.70;;;9.60;;
7289;SDS011;63176;52.678;13.250;2023-08-06T05:40:21;11.87;;;10.00;;
7289;SDS011;63176;52.678;13.250;2023-08-06T05:42:47;9.07;;;8.23;;
7289;SDS011;63176;52.678;13.250;2023-08-06T05:45:12;12.63;;;9.87;;
7289;SDS011;63176;52.678;13.250;2023-08-06T05:47:38;17.43;;;9.57;;
7289;SDS011;63176;52.678;13.250;2023-08-06T05:50:04;15.40;;;10.90;;
7289;SDS011;63176;52.678;13.250;2023-08-06T05:52:30;11.00;;;9.10;;
7289;SDS011;63176;52.678;13.250;2023-08-06T05:54:56;11.33;;;9.67;;
7289;SDS011;63176;52.678;13.250;2023-08-06T05:57:21;12.50;;;9.20;;
7289;SDS011;63176;52.678;13.250;2023-08-06T05:59:47;12.20;;;9.60;;
7289;SDS011;63176;52.678;13.250;2023-08-06T06:02:12;10.50;;;9.50;;
7289;SDS011;63176;52.678;13.250;2023-08-06T06:04:38;12.43;;;9.10;;
7289;SDS011;63176;52.678;13.250;2023-08-06T06:07:05;12.33;;;9.60;;
7289;SDS011;63176;52.678;13.250;2023-08-06T06:09:31;11.20;;;9.40;;
7289;SDS011;63176;52.678;13.250;2023-08-06T06:11:56;11.03;;;9.50;;
7289;SDS011;63176;52.678;13.250;2023-08-06T06:14:22;13.33;;;9.53;;
7289;SDS011;63176;52.678;13.250;2023-08-06T06:16:47;11.23;;;9.63;;
7289;SDS011;63176;52.678;13.250;2023-08-06T06:19:13;9.50;;;8.50;;
7289;SDS011;63176;52.678;13.250;2023-08-06T06:21:39;14.13;;;10.00;;
7289;SDS011;63176;52.678;13.250;2023-08-06T06:24:05;13.97;;;10.73;;
7289;SDS011;63176;52.678;13.250;2023-08-06T06:26:31;13.80;;;9.67;;
7289;SDS011;63176;52.678;13.250;2023-08-06T06:28:57;10.50;;;9.40;;
7289;SDS011;63176;52.678;13.250;2023-08-06T06:31:23;10.10;;;9.10;;
7289;SDS011;63176;52.678;13.250;2023-08-06T06:33:49;11.97;;;9.90;;
7289;SDS011;63176;52.678;13.250;2023-08-06T06:36:14;11.40;;;9.93;;
7289;SDS011;63176;52.678;13.250;2023-08-06T06:38:40;11.27;;;10.10;;
7289;SDS011;63176;52.678;13.250;2023-08-06T06:41:05;16.20;;;9.43;;
7289;SDS011;63176;52.678;13.250;2023-08-06T06:43:31;10.50;;;9.40;;
7289;SDS011;63176;52.678;13.250;2023-08-06T06:46:00;9.70;;;8.70;;
7289;SDS011;63176;52.678;13.250;2023-08-06T06:48:27;13.70;;;9.73;;
7289;SDS011;63176;52.678;13.250;2023-08-06T06:50:53;11.20;;;9.30;;
7289;SDS011;63176;52.678;13.250;2023-08-06T06:53:19;10.93;;;9.83;;
7289;SDS011;63176;52.678;13.250;2023-08-06T06:55:44;11.23;;;10.07;;
7289;SDS011;63176;52.678;13.250;2023-08-06T06:58:13;13.00;;;10.17;;
7289;SDS011;63176;52.678;13.250;2023-08-06T07:00:40;10.33;;;9.03;;
7289;SDS011;63176;52.678;13.250;2023-08-06T07:03:06;12.40;;;11.17;;
7289;SDS011;63176;52.678;13.250;2023-08-06T07:05:32;11.03;;;9.20;;
7289;SDS011;63176;52.678;13.250;2023-08-06T07:07:57;11.27;;;10.07;;
7289;SDS011;63176;52.678;13.250;2023-08-06T07:10:23;13.13;;;10.07;;
7289;SDS011;63176;52.678;13.250;2023-08-06T07:12:49;12.27;;;10.10;;
7289;SDS011;63176;52.678;13.250;2023-08-06T07:15:14;11.37;;;9.57;;
7289;SDS011;63176;52.678;13.250;2023-08-06T07:17:40;12.30;;;9.67;;
7289;SDS011;63176;52.678;13.250;2023-08-06T07:20:06;10.83;;;9.73;;
7289;SDS011;63176;52.678;13.250;2023-08-06T07:22:32;10.37;;;9.27;;
7289;SDS011;63176;52.678;13.250;2023-08-06T07:24:57;10.70;;;8.50;;
7289;SDS011;63176;52.678;13.250;2023-08-06T07:27:23;15.40;;;9.73;;
7289;SDS011;63176;52.678;13.250;2023-08-06T07:29:50;11.27;;;9.43;;
7289;SDS011;63176;52.678;13.250;2023-08-06T07:32:15;13.00;;;9.70;;
7289;SDS011;63176;52.678;13.250;2023-08-06T07:34:41;11.43;;;9.00;;
7289;SDS011;63176;52.678;13.250;2023-08-06T07:37:07;10.63;;;8.97;;
7289;SDS011;63176;52.678;13.250;2023-08-06T07:39:32;13.23;;;9.63;;
7289;SDS011;63176;52.678;13.250;2023-08-06T07:41:58;12.10;;;10.17;;
7289;SDS011;63176;52.678;13.250;2023-08-06T07:44:24;12.33;;;11.03;;
7289;SDS011;63176;52.678;13.250;2023-08-06T07:46:49;11.37;;;10.10;;
7289;SDS011;63176;52.678;13.250;2023-08-06T07:49:15;12.73;;;11.40;;
7289;SDS011;63176;52.678;13.250;2023-08-06T07:51:41;12.40;;;10.23;;
7289;SDS011;63176;52.678;13.250;2023-08-06T07:54:06;12.77;;;10.40;;
7289;SDS011;63176;52.678;13.250;2023-08-06T07:56:32;14.37;;;10.53;;
7289;SDS011;63176;52.678;13.250;2023-08-06T07:58:58;17.20;;;10.60;;
7289;SDS011;63176;52.678;13.250;2023-08-06T08:01:23;12.73;;;10.03;;
7289;SDS011;63176;52.678;13.250;2023-08-06T08:03:49;11.80;;;9.53;;
7289;SDS011;63176;52.678;13.250;2023-08-06T08:06:15;12.30;;;10.90;;
7289;SDS011;63176;52.678;13.250;2023-08-06T08:08:40;11.50;;;10.30;;
7289;SDS011;63176;52.678;13.250;2023-08-06T08:11:06;14.87;;;10.90;;
7289;SDS011;63176;52.678;13.250;2023-08-06T08:13:35;13.17;;;11.37;;
7289;SDS011;63176;52.678;13.250;2023-08-06T08:16:01;12.57;;;11.20;;
7289;SDS011;63176;52.678;13.250;2023-08-06T08:18:33;13.53;;;10.57;;
7289;SDS011;63176;52.678;13.250;2023-08-06T08:20:59;13.47;;;11.00;;
7289;SDS011;63176;52.678;13.250;2023-08-06T08:23:25;12.20;;;10.90;;
7289;SDS011;63176;52.678;13.250;2023-08-06T08:25:50;12.90;;;10.90;;
7289;SDS011;63176;52.678;13.250;2023-08-06T08:28:16;13.50;;;11.63;;
7289;SDS011;63176;52.678;13.250;2023-08-06T08:30:42;15.10;;;11.27;;
7289;SDS011;63176;52.678;13.250;2023-08-06T08:33:07;13.37;;;11.70;;
7289;SDS011;63176;52.678;13.250;2023-08-06T08:35:33;12.43;;;10.90;;
7289;SDS011;63176;52.678;13.250;2023-08-06T08:37:59;13.07;;;10.87;;
7289;SDS011;63176;52.678;13.250;2023-08-06T08:40:30;13.67;;;11.07;;
7289;SDS011;63176;52.678;13.250;2023-08-06T08:42:58;12.73;;;11.40;;
7289;SDS011;63176;52.678;13.250;2023-08-06T08:45:26;13.00;;;11.43;;
7289;SDS011;63176;52.678;13.250;2023-08-06T08:47:53;12.83;;;11.00;;
7289;SDS011;63176;52.678;13.250;2023-08-06T08:50:19;11.50;;;10.30;;
7289;SDS011;63176;52.678;13.250;2023-08-06T08:52:46;13.03;;;11.10;;
7289;SDS011;63176;52.678;13.250;2023-08-06T08:55:14;13.10;;;11.70;;
7289;SDS011;63176;52.678;13.250;2023-08-06T08:57:41;13.63;;;11.83;;
7289;SDS011;63176;52.678;13.250;2023-08-06T09:00:07;16.73;;;11.20;;
7289;SDS011;63176;52.678;13.250;2023-08-06T09:02:33;12.90;;;11.17;;
7289;SDS011;63176;52.678;13.250;2023-08-06T09:04:59;13.10;;;10.97;;
7289;SDS011;63176;52.678;13.250;2023-08-06T09:07:29;14.93;;;11.07;;
7289;SDS011;63176;52.678;13.250;2023-08-06T09:10:00;11.90;;;10.60;;
7289;SDS011;63176;52.678;13.250;2023-08-06T09:12:31;11.67;;;10.20;;
7289;SDS011;63176;52.678;13.250;2023-08-06T09:14:57;11.97;;;10.80;;
7289;SDS011;63176;52.678;13.250;2023-08-06T09:17:23;16.47;;;11.80;;
7289;SDS011;63176;52.678;13.250;2023-08-06T09:19:49;15.70;;;11.50;;
7289;SDS011;63176;52.678;13.250;2023-08-06T09:22:14;14.33;;;11.50;;
7289;SDS011;63176;52.678;13.250;2023-08-06T09:24:41;12.77;;;10.63;;
7289;SDS011;63176;52.678;13.250;2023-08-06T09:27:10;14.73;;;11.30;;
7289;SDS011;63176;52.678;13.250;2023-08-06T09:29:42;12.13;;;10.80;;
7289;SDS011;63176;52.678;13.250;2023-08-06T09:32:08;13.50;;;11.77;;
7289;SDS011;63176;52.678;13.250;2023-08-06T09:34:33;13.07;;;11.67;;
7289;SDS011;63176;52.678;13.250;2023-08-06T09:36:59;12.97;;;10.77;;
7289;SDS011;63176;52.678;13.250;2023-08-06T09:39:28;12.57;;;11.37;;
7289;SDS011;63176;52.678;13.250;2023-08-06T09:41:55;12.53;;;10.40;;
7289;SDS011;63176;52.678;13.250;2023-08-06T09:44:22;12.60;;;11.20;;
7289;SDS011;63176;52.678;13.250;2023-08-06T09:46:54;13.47;;;11.20;;
7289;SDS011;63176;52.678;13.250;2023-08-06T09:49:41;17.10;;;11.17;;
7289;SDS011;63176;52.678;13.250;2023-08-06T09:52:11;14.30;;;11.83;;
7289;SDS011;63176;52.678;13.250;2023-08-06T09:54:38;13.53;;;11.50;;
7289;SDS011;63176;52.678;13.250;2023-08-06T09:57:05;13.80;;;10.97;;
7289;SDS011;63176;52.678;13.250;2023-08-06T09:59:31;15.60;;;11.63;;
7289;SDS011;63176;52.678;13.250;2023-08-06T10:01:57;14.90;;;11.27;;
7289;SDS011;63176;52.678;13.250;2023-08-06T10:04:23;13.63;;;11.50;;
7289;SDS011;63176;52.678;13.250;2023-08-06T10:06:49;14.80;;;11.07;;
7289;SDS011;63176;52.678;13.250;2023-08-06T10:09:16;12.10;;;10.43;;
7289;SDS011;63176;52.678;13.250;2023-08-06T10:11:43;12.53;;;11.00;;
7289;SDS011;63176;52.678;13.250;2023-08-06T10:14:14;13.97;;;11.97;;
7289;SDS011;63176;52.678;13.250;2023-08-06T10:16:44;14.40;;;11.67;;
7289;SDS011;63176;52.678;13.250;2023-08-06T10:19:12;21.77;;;11.40;;
7289;SDS011;63176;52.678;13.250;2023-08-06T10:21:38;12.20;;;10.87;;
7289;SDS011;63176;52.678;13.250;2023-08-06T10:24:07;13.43;;;10.87;;
7289;SDS011;63176;52.678;13.250;2023-08-06T10:26:36;14.30;;;11.10;;
7289;SDS011;63176;52.678;13.250;2023-08-06T10:29:34;14.00;;;10.77;;
7289;SDS011;63176;52.678;13.250;2023-08-06T10:32:01;12.97;;;11.30;;
7289;SDS011;63176;52.678;13.250;2023-08-06T10:37:19;13.77;;;9.97;;
7289;SDS011;63176;52.678;13.250;2023-08-06T10:39:50;12.00;;;10.70;;
7289;SDS011;63176;52.678;13.250;2023-08-06T10:42:27;12.23;;;9.73;;
7289;SDS011;63176;52.678;13.250;2023-08-06T10:47:40;13.00;;;11.40;;
7289;SDS011;63176;52.678;13.250;2023-08-06T10:50:13;12.40;;;11.10;;
7289;SDS011;63176;52.678;13.250;2023-08-06T10:52:46;13.17;;;10.20;;
7289;SDS011;63176;52.678;13.250;2023-08-06T10:55:12;11.07;;;9.87;;
7289;SDS011;63176;52.678;13.250;2023-08-06T10:57:48;11.07;;;9.10;;
7289;SDS011;63176;52.678;13.250;2023-08-06T11:00:14;10.90;;;9.80;;
7289;SDS011;63176;52.678;13.250;2023-08-06T11:02:40;12.40;;;10.90;;
7289;SDS011;63176;52.678;13.250;2023-08-06T11:05:07;12.23;;;9.50;;
7289;SDS011;63176;52.678;13.250;2023-08-06T11:07:33;10.57;;;9.47;;
7289;SDS011;63176;52.678;13.250;2023-08-06T11:10:06;10.63;;;9.30;;
7289;SDS011;63176;52.678;13.250;2023-08-06T11:12:33;9.60;;;8.60;;
7289;SDS011;63176;52.678;13.250;2023-08-06T11:15:00;11.97;;;9.50;;
7289;SDS011;63176;52.678;13.250;2023-08-06T11:17:29;10.70;;;9.40;;
7289;SDS011;63176;52.678;13.250;2023-08-06T11:19:58;11.20;;;9.17;;
7289;SDS011;63176;52.678;13.250;2023-08-06T11:22:25;10.40;;;9.30;;
7289;SDS011;63176;52.678;13.250;2023-08-06T11:24:52;11.33;;;10.23;;
7289;SDS011;63176;52.678;13.250;2023-08-06T11:27:18;10.00;;;9.00;;
7289;SDS011;63176;52.678;13.250;2023-08-06T11:29:44;10.47;;;9.40;;
7289;SDS011;63176;52.678;13.250;2023-08-06T11:32:10;10.13;;;9.10;;
7289;SDS011;63176;52.678;13.250;2023-08-06T11:34:37;10.10;;;8.87;;
7289;SDS011;63176;52.678;13.250;2023-08-06T11:37:04;11.13;;;10.00;;
7289;SDS011;63176;52.678;13.250;2023-08-06T11:39:37;16.73;;;10.57;;
7289;SDS011;63176;52.678;13.250;2023-08-06T11:42:04;11.63;;;10.30;;
7289;SDS011;63176;52.678;13.250;2023-08-06T11:44:31;11.87;;;9.90;;
7289;SDS011;63176;52.678;13.250;2023-08-06T11:47:04;16.07;;;11.57;;
7289;SDS011;63176;52.678;13.250;2023-08-06T11:49:37;13.83;;;11.10;;
7289;SDS011;63176;52.678;13.250;2023-08-06T11:52:22;12.70;;;9.97;;
7289;SDS011;63176;52.678;13.250;2023-08-06T11:55:08;12.20;;;9.93;;
7289;SDS011;63176;52.678;13.250;2023-08-06T11:57:39;14.20;;;12.00;;
7289;SDS011;63176;52.678;13.250;2023-08-06T12:00:10;11.50;;;9.93;;
7289;SDS011;63176;52.678;13.250;2023-08-06T12:02:38;12.90;;;9.30;;
7289;SDS011;63176;52.678;13.250;2023-08-06T12:07:40;10.57;;;9.03;;
7289;SDS011;63176;52.678;13.250;2023-08-06T12:10:07;11.27;;;9.57;;
7289;SDS011;63176;52.678;13.250;2023-08-06T12:12:37;10.97;;;9.07;;
7289;SDS011;63176;52.678;13.250;2023-08-06T12:15:03;8.80;;;7.97;;
7289;SDS011;63176;52.678;13.250;2023-08-06T12:17:31;10.20;;;8.90;;
7289;SDS011;63176;52.678;13.250;2023-08-06T12:19:57;11.20;;;9.90;;
7289;SDS011;63176;52.678;13.250;2023-08-06T12:22:23;11.13;;;9.63;;
7289;SDS011;63176;52.678;13.250;2023-08-06T12:24:49;10.70;;;9.00;;
7289;SDS011;63176;52.678;13.250;2023-08-06T12:27:15;14.40;;;9.37;;
7289;SDS011;63176;52.678;13.250;2023-08-06T12:29:44;10.50;;;9.30;;
7289;SDS011;63176;52.678;13.250;2023-08-06T12:32:11;11.83;;;9.60;;
7289;SDS011;63176;52.678;13.250;2023-08-06T12:34:40;11.10;;;8.60;;
7289;SDS011;63176;52.678;13.250;2023-08-06T12:37:08;9.77;;;8.20;;
7289;SDS011;63176;52.678;13.250;2023-08-06T12:39:34;9.00;;;8.00;;
7289;SDS011;63176;52.678;13.250;2023-08-06T12:42:01;12.80;;;9.20;;
7289;SDS011;63176;52.678;13.250;2023-08-06T12:44:27;13.93;;;9.10;;
7289;SDS011;63176;52.678;13.250;2023-08-06T12:46:53;10.63;;;8.30;;
7289;SDS011;63176;52.678;13.250;2023-08-06T12:49:19;11.20;;;8.23;;
7289;SDS011;63176;52.678;13.250;2023-08-06T12:51:46;9.13;;;7.70;;
7289;SDS011;63176;52.678;13.250;2023-08-06T12:54:13;8.70;;;7.60;;
7289;SDS011;63176;52.678;13.250;2023-08-06T12:56:38;9.43;;;8.20;;
7289;SDS011;63176;52.678;13.250;2023-08-06T12:59:04;8.73;;;7.20;;
7289;SDS011;63176;52.678;13.250;2023-08-06T13:01:30;10.77;;;8.20;;
7289;SDS011;63176;52.678;13.250;2023-08-06T13:03:55;10.60;;;8.10;;
7289;SDS011;63176;52.678;13.250;2023-08-06T13:06:21;9.17;;;7.10;;
7289;SDS011;63176;52.678;13.250;2023-08-06T13:08:47;8.67;;;7.10;;
7289;SDS011;63176;52.678;13.250;2023-08-06T13:11:12;11.10;;;7.50;;
7289;SDS011;63176;52.678;13.250;2023-08-06T13:13:38;9.80;;;7.33;;
7289;SDS011;63176;52.678;13.250;2023-08-06T13:16:04;8.80;;;7.27;;
7289;SDS011;63176;52.678;13.250;2023-08-06T13:18:29;12.70;;;6.67;;
7289;SDS011;63176;52.678;13.250;2023-08-06T13:20:56;12.97;;;6.00;;
7289;SDS011;63176;52.678;13.250;2023-08-06T13:23:22;8.23;;;5.60;;
7289;SDS011;63176;52.678;13.250;2023-08-06T13:25:47;5.27;;;4.57;;
7289;SDS011;63176;52.678;13.250;2023-08-06T13:28:13;5.30;;;4.60;;
7289;SDS011;63176;52.678;13.250;2023-08-06T13:30:39;6.03;;;5.00;;
7289;SDS011;63176;52.678;13.250;2023-08-06T13:33:07;6.17;;;4.40;;
7289;SDS011;63176;52.678;13.250;2023-08-06T13:35:33;5.57;;;4.30;;
7289;SDS011;63176;52.678;13.250;2023-08-06T13:37:59;6.30;;;4.13;;
7289;SDS011;63176;52.678;13.250;2023-08-06T13:40:27;4.70;;;3.80;;
7289;SDS011;63176;52.678;13.250;2023-08-06T13:42:55;4.27;;;3.87;;
7289;SDS011;63176;52.678;13.250;2023-08-06T13:45:20;4.40;;;3.70;;
7289;SDS011;63176;52.678;13.250;2023-08-06T13:47:46;4.63;;;3.57;;
7289;SDS011;63176;52.678;13.250;2023-08-06T13:50:12;4.77;;;3.83;;
7289;SDS011;63176;52.678;13.250;2023-08-06T13:52:38;4.57;;;3.70;;
7289;SDS011;63176;52.678;13.250;2023-08-06T13:55:04;6.90;;;4.10;;
7289;SDS011;63176;52.678;13.250;2023-08-06T13:57:31;3.13;;;2.83;;
7289;SDS011;63176;52.678;13.250;2023-08-06T13:59:57;5.90;;;3.27;;
7289;SDS011;63176;52.678;13.250;2023-08-06T14:02:22;2.90;;;2.50;;
7289;SDS011;63176;52.678;13.250;2023-08-06T14:04:48;4.57;;;2.73;;
7289;SDS011;63176;52.678;13.250;2023-08-06T14:07:14;3.00;;;2.80;;
7289;SDS011;63176;52.678;13.250;2023-08-06T14:09:39;6.20;;;2.93;;
7289;SDS011;63176;52.678;13.250;2023-08-06T14:12:07;3.37;;;3.07;;
7289;SDS011;63176;52.678;13.250;2023-08-06T14:14:33;4.33;;;3.17;;
7289;SDS011;63176;52.678;13.250;2023-08-06T14:16:58;7.70;;;4.00;;
7289;SDS011;63176;52.678;13.250;2023-08-06T14:19:24;3.83;;;3.00;;
7289;SDS011;63176;52.678;13.250;2023-08-06T14:21:50;4.23;;;3.83;;
7289;SDS011;63176;52.678;13.250;2023-08-06T14:24:15;3.90;;;3.40;;
7289;SDS011;63176;52.678;13.250;2023-08-06T14:26:41;4.03;;;3.30;;
7289;SDS011;63176;52.678;13.250;2023-08-06T14:29:07;3.57;;;3.23;;
7289;SDS011;63176;52.678;13.250;2023-08-06T14:31:32;5.83;;;3.50;;
7289;SDS011;63176;52.678;13.250;2023-08-06T14:33:58;5.70;;;3.70;;
7289;SDS011;63176;52.678;13.250;2023-08-06T14:36:24;4.30;;;3.27;;
7289;SDS011;63176;52.678;13.250;2023-08-06T14:38:50;5.20;;;3.67;;
7289;SDS011;63176;52.678;13.250;2023-08-06T14:41:16;3.60;;;3.30;;
7289;SDS011;63176;52.678;13.250;2023-08-06T14:43:42;3.73;;;3.43;;
7289;SDS011;63176;52.678;13.250;2023-08-06T14:46:07;4.70;;;4.27;;
7289;SDS011;63176;52.678;13.250;2023-08-06T14:48:33;6.57;;;3.47;;